CW2798 Aduanas ES current weather conditions

sailwx.info

Air temperature 18.3° C
Dewpoint 12.3° C

Last reported at 2016-May-31 23:45 UTC.
Time now 2016-Jun-01 01:46 UTC

Location: N 38°48' E 000°11'.
View on Google Maps.

See reports from other nearby stations

  
Tides and Currents Weather Stations Pressure Air Temp Water Temp Dewpoint Dewpoint Depression Visibility Wind Speed Wind Dir Waves Ship Positions
date/time (UTC)wind fromknots sea level pressurealtimeterstation pressurevisibilityair tempwater tempwave heightnotes
2016-May-31 23:45 18.3
2016-May-31 23:00 264 18.3
2016-May-31 21:15 20.0
2016-May-31 19:45 20.0
2016-May-31 19:00 20.6
2016-May-31 18:45 129 20.0
2016-May-31 18:30 150 20.0
2016-May-31 18:00 20.6
2016-May-31 17:30 024 0 gusting 2 20.6
2016-May-31 17:15 053 0 gusting 4 20.6
2016-May-31 16:15 043 1 gusting 6 21.1
2016-May-31 15:45 032 2 gusting 8 21.1
2016-May-31 15:30 068 2 gusting 8 21.1
2016-May-31 15:15 140 0 gusting 3 21.7
2016-May-31 14:45 031 1 gusting 5 21.1
2016-May-31 14:30 067 2 gusting 6 20.6
2016-May-31 14:15 043 2 gusting 7 21.1
2016-May-31 13:45 153 21.7
2016-May-31 12:30 018 3 gusting 8 20.6
2016-May-31 12:15 007 2 gusting 6 20.6
2016-May-31 11:45 019 3 gusting 7 20.6
2016-May-31 11:30 019 3 gusting 6 21.1
2016-May-31 11:15 012 3 gusting 7 21.1
2016-May-31 11:00 032 2 gusting 6 21.1
2016-May-31 10:30 031 1 gusting 6 21.1
2016-May-31 10:15 031 0 gusting 6 21.1
2016-May-31 10:00 026 0 gusting 6 21.1
2016-May-31 09:00 018 1 gusting 6 20.6
2016-May-31 08:30 019 1 gusting 5 21.1
2016-May-31 08:15 020 2 gusting 6 20.6
2016-May-31 07:45 028 3 gusting 4 20.6
2016-May-31 07:30 001 5 gusting 8 20.6
2016-May-31 07:15 018 6 gusting 11 20.6
2016-May-31 07:00 007 2 gusting 6 20.6
2016-May-31 06:30 354 2 gusting 8 20.0
2016-May-31 06:15 346 0 gusting 6 20.0
2016-May-31 05:45 344 1 gusting 4 19.4
2016-May-31 05:15 327 1 gusting 6 19.4
2016-May-31 05:00 354 2 gusting 9 18.9
2016-May-31 04:45 330 5 gusting 6 18.9
2016-May-31 04:00 324 6 gusting 13 18.9
2016-May-31 03:15 336 6 gusting 14 18.9
2016-May-31 03:00 325 7 gusting 17 18.9
2016-May-31 02:30 347 6 gusting 14 19.4
2016-May-31 02:15 324 7 gusting 18 19.4
2016-May-31 01:00 327 8 gusting 18 20.0
2016-May-31 00:30 325 6 gusting 14 20.0
2016-May-30 23:30 343 0 gusting 6 21.1
2016-May-30 23:15 21.1
2016-May-30 22:45 270 5 gusting 6 21.7
2016-May-30 21:45 265 8 gusting 11 22.2
2016-May-30 21:15 266 7 gusting 13 21.7
2016-May-30 20:45 270 11 gusting 15 21.7
2016-May-30 20:30 278 10 gusting 19 21.7
2016-May-30 19:45 266 6 gusting 13 21.1
2016-May-30 19:15 252 5 gusting 12 21.1
2016-May-30 19:00 242 6 gusting 15 21.7
2016-May-30 18:45 237 7 gusting 14 21.7
2016-May-30 18:15 234 9 gusting 15 22.2
2016-May-30 17:45 253 8 gusting 14 22.8
2016-May-30 17:15 253 9 gusting 18 23.3
2016-May-30 16:45 219 6 gusting 13 23.3
2016-May-30 16:30 194 6 gusting 14 23.3
2016-May-30 15:30 164 5 gusting 10 23.3
2016-May-30 15:15 217 6 gusting 12 23.3
2016-May-30 14:45 116 2 gusting 8 22.2
2016-May-30 14:30 121 3 gusting 9 22.2
2016-May-30 14:00 115 3 gusting 6 22.2
2016-May-30 13:45 132 3 gusting 6 22.2
2016-May-30 12:45 137 3 gusting 6 22.2
2016-May-30 12:30 146 1 gusting 5 22.2
2016-May-30 12:00 092 1 gusting 7 21.7
2016-May-30 11:15 094 0 gusting 7 22.2
2016-May-30 11:00 106 1 gusting 7 22.2
2016-May-30 10:45 129 1 gusting 4 22.2
2016-May-30 10:30 112 2 gusting 6 22.8
2016-May-30 09:45 009 5 gusting 10 23.3
2016-May-30 09:30 004 6 gusting 14 23.9
2016-May-30 09:00 355 0 gusting 9 24.4
2016-May-30 08:45 328 2 gusting 4 23.9
2016-May-30 08:30 322 5 gusting 9 23.9
2016-May-30 08:00 272 6 gusting 13 23.9
2016-May-30 07:45 296 6 gusting 11 23.3
2016-May-30 07:15 301 6 gusting 12 23.3
2016-May-30 07:00 291 9 gusting 16 22.8
2016-May-30 06:30 285 4 gusting 11 22.8
2016-May-30 06:15 292 5 gusting 12 22.2
2016-May-30 05:45 297 6 gusting 12 21.7
2016-May-30 05:30 298 8 gusting 13 21.7
2016-May-30 04:45 302 6 gusting 15 21.7
2016-May-30 04:15 297 6 gusting 13 21.7
2016-May-30 04:00 288 7 gusting 10 21.7
2016-May-30 03:15 301 7 gusting 17 22.2
2016-May-30 03:00 296 8 gusting 17 22.2
2016-May-30 02:45 297 7 gusting 13 22.2
2016-May-30 02:15 293 6 gusting 12 22.2
2016-May-30 02:00 296 7 gusting 13 22.2
2016-May-30 01:30 294 5 gusting 9 22.8
2016-May-30 01:00 295 4 gusting 7 22.8